Time;durP1;ratioP1;P1;durP2;ratioP2;P2;SDS_P1;SDS_P2;PMS_P1;PMS_P2;Temp;Humidity;BMP_temperature;BMP_pressure;BME280_temperature;BME280_humidity;BME280_pressure;Samples;Min_cycle;Max_cycle;Signal;HPM_P1;HPM_P2
2021/07/29 00:01:14;;;;;;;12.47;9.15;;;;;;;20.89;73.51;96843.65;1742245;79;25981;-88
2021/07/29 00:03:41;;;;;;;13.05;9.13;;;;;;;20.83;73.59;96836.59;1733625;80;28128;-86
2021/07/29 00:06:16;;;;;;;15.65;9.85;;;;;;;20.81;73.78;96832.77;1742395;80;25815;-87
2021/07/29 00:08:42;;;;;;;12.60;9.43;;;;;;;20.83;73.87;96827.00;1724611;81;25838;-91
2021/07/29 00:11:10;;;;;;;13.13;9.35;;;;;;;20.82;73.89;96828.10;1736959;80;26870;-82
2021/07/29 00:13:38;;;;;;;13.30;9.88;;;;;;;20.79;73.84;96835.53;1784217;79;25728;-83
2021/07/29 00:16:05;;;;;;;14.15;10.00;;;;;;;20.75;73.96;96835.32;1760717;79;27650;-83
2021/07/29 00:21:17;;;;;;;13.50;9.28;;;;;;;20.67;74.20;96839.22;1816692;77;25710;-88
2021/07/29 00:23:49;;;;;;;13.28;9.38;;;;;;;20.68;74.35;96835.38;1819349;77;25994;-83
2021/07/29 00:26:17;;;;;;;11.85;9.73;;;;;;;20.68;74.36;96840.86;1795115;78;25779;-83
2021/07/29 00:28:43;;;;;;;16.30;10.53;;;;;;;20.68;74.47;96839.48;1800797;78;27397;-88
2021/07/29 00:31:11;;;;;;;12.07;9.40;;;;;;;20.66;74.53;96843.06;1780754;77;25749;-82
2021/07/29 00:33:37;;;;;;;12.90;9.80;;;;;;;20.58;74.54;96844.52;1786635;78;25766;-82
2021/07/29 00:36:04;;;;;;;14.55;9.83;;;;;;;20.57;74.66;96842.06;1806335;77;25752;-87
2021/07/29 00:38:33;;;;;;;13.78;9.68;;;;;;;20.51;74.85;96831.72;1811088;77;25656;-84
2021/07/29 00:40:59;;;;;;;15.45;10.40;;;;;;;20.43;74.90;96838.63;1807738;77;27393;-82
2021/07/29 00:43:26;;;;;;;12.68;9.90;;;;;;;20.47;75.12;96847.92;1781122;77;26224;-89
2021/07/29 00:45:53;;;;;;;14.55;10.95;;;;;;;20.49;75.17;96847.08;1813952;78;26589;-84
2021/07/29 00:48:20;;;;;;;11.97;10.23;;;;;;;20.55;75.19;96848.39;1796244;78;25750;-86
2021/07/29 00:50:46;;;;;;;15.08;10.48;;;;;;;20.52;75.23;96852.55;1767173;79;25770;-83
2021/07/29 00:53:13;;;;;;;16.23;10.93;;;;;;;20.53;75.29;96855.53;1781662;78;28206;-85
2021/07/29 00:55:41;;;;;;;12.53;10.23;;;;;;;20.58;75.34;96857.42;1799409;77;25762;-85
2021/07/29 00:58:08;;;;;;;14.53;11.18;;;;;;;20.61;75.41;96848.62;1809908;78;25494;-88
2021/07/29 01:00:35;;;;;;;14.10;11.22;;;;;;;20.53;75.40;96846.52;1804779;77;26543;-82
2021/07/29 01:03:02;;;;;;;15.38;11.53;;;;;;;20.51;75.54;96861.06;1803171;77;25724;-83
2021/07/29 01:05:29;;;;;;;14.05;11.08;;;;;;;20.46;75.67;96855.05;1784501;78;27394;-83
2021/07/29 01:07:56;;;;;;;17.60;11.70;;;;;;;20.42;75.74;96854.80;1815680;78;25683;-83
2021/07/29 01:10:23;;;;;;;14.33;10.55;;;;;;;20.43;75.80;96849.59;1794076;77;25837;-83
2021/07/29 01:12:49;;;;;;;13.68;10.55;;;;;;;20.42;75.81;96848.50;1786850;79;25756;-86
2021/07/29 01:15:16;;;;;;;13.62;11.05;;;;;;;20.39;75.81;96854.58;1782990;79;25730;-82
2021/07/29 01:17:42;;;;;;;14.70;11.35;;;;;;;20.39;75.88;96855.41;1782814;79;27315;-88
2021/07/29 01:20:12;;;;;;;14.95;10.82;;;;;;;20.40;75.88;96855.67;1781232;77;26303;-89
2021/07/29 01:22:38;;;;;;;15.93;11.68;;;;;;;20.45;75.86;96848.75;1801193;78;25683;-83
2021/07/29 01:25:06;;;;;;;18.45;11.73;;;;;;;20.49;75.79;96850.38;1801436;78;25673;-86
2021/07/29 01:27:34;;;;;;;14.68;11.57;;;;;;;20.52;75.72;96850.36;1802042;77;25635;-86
2021/07/29 01:30:02;;;;;;;15.78;10.72;;;;;;;20.48;75.78;96845.44;1779456;77;27415;-83
2021/07/29 01:32:29;;;;;;;15.72;11.40;;;;;;;20.47;75.82;96847.92;1780818;79;25246;-83
2021/07/29 01:35:00;;;;;;;17.12;11.45;;;;;;;20.45;75.84;96841.90;1783205;79;25778;-82
2021/07/29 01:37:27;;;;;;;14.68;10.78;;;;;;;20.42;75.85;96835.61;1713121;81;25821;-83
2021/07/29 01:39:53;;;;;;;13.85;11.22;;;;;;;20.42;75.93;96835.61;1802159;77;25842;-87
2021/07/29 01:42:20;;;;;;;17.32;10.85;;;;;;;20.41;75.95;96838.64;1796898;78;26867;-84
2021/07/29 01:44:46;;;;;;;15.32;10.85;;;;;;;20.39;76.02;96841.70;1820607;77;25778;-88
2021/07/29 01:47:13;;;;;;;12.07;10.75;;;;;;;20.39;76.04;96844.44;1785473;79;25811;-87
2021/07/29 01:49:39;;;;;;;14.87;11.25;;;;;;;20.42;76.07;96847.95;1811234;77;25778;-84
2021/07/29 01:52:06;;;;;;;15.25;12.45;;;;;;;20.45;76.07;96850.12;1791552;77;25852;-83
2021/07/29 01:54:33;;;;;;;16.27;12.37;;;;;;;20.47;76.06;96854.77;1804133;77;28345;-84
2021/07/29 01:56:59;;;;;;;16.85;12.10;;;;;;;20.48;76.05;96856.41;1812065;77;25724;-85
2021/07/29 01:59:26;;;;;;;16.75;12.10;;;;;;;20.49;76.04;96857.23;1800150;78;25770;-87
2021/07/29 02:01:53;;;;;;;16.80;12.30;;;;;;;20.51;76.11;96865.17;1816829;77;25843;-87
2021/07/29 02:04:19;;;;;;;14.05;11.38;;;;;;;20.45;76.12;96861.09;1802505;78;25763;-85
2021/07/29 02:06:46;;;;;;;14.28;12.37;;;;;;;20.44;76.24;96860.82;1746064;80;27467;-83
2021/07/29 02:09:13;;;;;;;15.45;12.35;;;;;;;20.43;76.36;96858.36;1791539;79;25784;-85
2021/07/29 02:11:39;;;;;;;16.00;11.97;;;;;;;20.39;76.44;96857.33;1745476;80;25812;-82
2021/07/29 02:14:08;;;;;;;15.50;11.60;;;;;;;20.36;76.51;96853.23;1792988;79;26962;-86
2021/07/29 02:16:35;;;;;;;15.70;11.50;;;;;;;20.35;76.60;96855.70;1790048;79;25707;-83
2021/07/29 02:19:01;;;;;;;16.77;12.40;;;;;;;20.35;76.70;96857.59;1780663;79;28139;-84
2021/07/29 02:21:28;;;;;;;14.25;12.73;;;;;;;20.34;76.76;96858.14;1767867;79;25792;-84
2021/07/29 02:23:55;;;;;;;14.28;11.73;;;;;;;20.35;76.81;96860.33;1755661;79;25665;-84
2021/07/29 02:26:21;;;;;;;16.70;12.88;;;;;;;20.35;76.81;96862.55;1753654;79;26548;-84
2021/07/29 02:28:48;;;;;;;14.38;12.58;;;;;;;20.32;76.88;96860.34;1812062;77;25648;-83
2021/07/29 02:31:15;;;;;;;14.23;12.07;;;;;;;20.29;76.91;96862.28;1813804;78;27619;-83
2021/07/29 02:33:41;;;;;;;16.87;12.47;;;;;;;20.30;76.98;96866.66;1800700;78;25916;-84
2021/07/29 02:36:08;;;;;;;14.43;12.65;;;;;;;20.32;77.02;96867.75;1770794;79;25745;-83
2021/07/29 02:38:35;;;;;;;16.48;13.58;;;;;;;20.33;77.05;96872.12;1748400;79;25874;-84
2021/07/29 02:41:01;;;;;;;16.45;12.95;;;;;;;20.37;76.97;96876.80;1736351;79;25989;-86
2021/07/29 02:43:28;;;;;;;14.33;12.88;;;;;;;20.40;76.90;96876.23;1734810;80;27411;-84
2021/07/29 02:45:54;;;;;;;17.65;13.75;;;;;;;20.42;76.85;96873.99;1776981;79;25700;-85
2021/07/29 02:48:21;;;;;;;17.45;13.13;;;;;;;20.44;76.83;96878.64;1813587;77;25742;-83
2021/07/29 02:50:55;;;;;;;21.05;13.40;;;;;;;20.45;76.83;96876.17;1806638;77;25784;-83
2021/07/29 02:53:25;;;;;;;14.87;12.28;;;;;;;20.45;76.85;96876.17;1816529;78;25707;-86
2021/07/29 02:55:57;;;;;;;15.48;13.10;;;;;;;20.48;76.82;96878.89;1813778;77;28300;-86
2021/07/29 02:58:20;;;;;;;20.02;13.25;;;;;;;20.49;76.83;96878.61;1803183;78;25731;-82
2021/07/29 03:00:47;;;;;;;19.10;14.23;;;;;;;20.41;76.86;96868.24;1807485;77;25727;-81
2021/07/29 03:03:13;;;;;;;18.67;13.90;;;;;;;20.35;76.94;96865.30;1775888;80;25753;-83
2021/07/29 03:05:40;;;;;;;16.52;14.10;;;;;;;20.37;77.04;96865.01;1790684;78;25716;-82
2021/07/29 03:08:07;;;;;;;18.02;14.23;;;;;;;20.35;77.10;96864.44;1767749;78;27365;-83
2021/07/29 03:10:33;;;;;;;21.20;14.07;;;;;;;20.32;77.17;96858.97;1761210;79;26443;-82
2021/07/29 03:13:01;;;;;;;18.35;14.90;;;;;;;20.33;77.26;96858.42;1782220;79;25885;-82
2021/07/29 03:15:33;;;;;;;21.02;15.00;;;;;;;20.32;77.22;96853.49;1799231;77;25769;-82
2021/07/29 03:17:59;;;;;;;17.17;14.70;;;;;;;20.32;77.28;96856.23;1806786;78;25784;-86
2021/07/29 03:20:26;;;;;;;18.82;14.60;;;;;;;20.29;77.34;96860.09;1810167;78;27581;-84
2021/07/29 03:22:53;;;;;;;19.37;15.30;;;;;;;20.28;77.34;96860.67;1802388;79;25861;-83
2021/07/29 03:25:19;;;;;;;16.73;14.87;;;;;;;20.29;77.33;96862.28;1791928;79;25764;-86
2021/07/29 03:27:46;;;;;;;18.00;15.20;;;;;;;20.31;77.33;96866.92;1775616;79;25835;-87
2021/07/29 03:30:13;;;;;;;21.07;15.78;;;;;;;20.32;77.35;96855.41;1795481;78;25701;-82
2021/07/29 03:32:40;;;;;;;17.30;14.38;;;;;;;20.30;77.33;96856.25;1815382;77;27394;-85
2021/07/29 03:35:07;;;;;;;18.82;14.30;;;;;;;20.25;77.30;96858.50;1800277;78;25737;-83
2021/07/29 03:37:34;;;;;;;19.40;14.85;;;;;;;20.24;77.41;96863.71;1811439;77;25249;-84
2021/07/29 03:40:04;;;;;;;18.60;14.70;;;;;;;20.21;77.40;96860.71;1813596;77;25664;-85
2021/07/29 03:42:32;;;;;;;14.73;13.25;;;;;;;20.18;77.42;96870.31;1814750;78;25974;-81
2021/07/29 03:44:59;;;;;;;12.75;11.55;;;;;;;20.18;77.37;96866.76;1792274;78;27632;-82
2021/07/29 03:47:27;;;;;;;12.95;11.65;;;;;;;20.07;77.17;96861.91;1787468;79;25829;-84
2021/07/29 03:49:54;;;;;;;14.43;11.53;;;;;;;20.05;77.15;96868.22;1792272;79;26328;-82
2021/07/29 03:52:21;;;;;;;13.60;11.53;;;;;;;20.03;77.21;96876.75;1732047;81;25765;-84
2021/07/29 03:54:53;;;;;;;13.22;11.88;;;;;;;19.99;77.12;96885.81;1722271;81;25709;-82
2021/07/29 03:57:23;;;;;;;13.08;11.80;;;;;;;19.95;77.08;96890.20;1771050;79;27405;-83
2021/07/29 03:59:48;;;;;;;16.42;14.15;;;;;;;19.93;76.99;96890.48;1788751;79;25755;-86
2021/07/29 04:02:15;;;;;;;16.45;14.78;;;;;;;19.93;76.93;96889.11;1778636;79;26336;-88
2021/07/29 04:04:42;;;;;;;18.00;15.20;;;;;;;19.92;76.83;96893.53;1751398;79;25857;-83
2021/07/29 04:07:09;;;;;;;18.45;16.40;;;;;;;19.91;76.76;96891.34;1753634;79;25759;-83
2021/07/29 04:09:36;;;;;;;18.00;16.12;;;;;;;19.89;76.67;96890.80;1773175;79;27399;-83
2021/07/29 04:12:04;;;;;;;19.55;16.52;;;;;;;19.82;76.74;96888.09;1763135;79;25915;-83
2021/07/29 04:14:30;;;;;;;18.62;16.40;;;;;;;19.73;76.90;96892.80;1778577;79;25839;-83
2021/07/29 04:16:57;;;;;;;19.65;17.75;;;;;;;19.68;77.04;96896.13;1737240;79;25842;-83
2021/07/29 04:19:23;;;;;;;23.15;18.62;;;;;;;19.66;77.17;96900.52;1777405;79;25795;-83
2021/07/29 04:21:50;;;;;;;26.75;21.10;;;;;;;19.64;77.00;96901.34;1795400;78;28204;-84
2021/07/29 04:24:18;;;;;;;22.65;20.35;;;;;;;19.58;77.13;96905.19;1809452;79;25679;-85
2021/07/29 04:26:44;;;;;;;22.73;19.65;;;;;;;19.52;77.16;96903.59;1804815;78;25715;-85
2021/07/29 04:29:11;;;;;;;23.07;20.62;;;;;;;19.55;77.22;96908.52;1763969;79;25729;-86
2021/07/29 04:31:38;;;;;;;26.57;22.87;;;;;;;19.51;77.15;96913.45;1737377;81;25624;-85
2021/07/29 04:34:04;;;;;;;25.75;23.02;;;;;;;19.41;77.37;96916.47;1752325;80;27543;-84
2021/07/29 04:36:31;;;;;;;26.93;24.20;;;;;;;19.36;77.61;96912.92;1738807;81;25793;-85
2021/07/29 04:38:57;;;;;;;26.57;23.77;;;;;;;19.34;77.81;96920.58;1803800;78;25710;-85
2021/07/29 04:41:24;;;;;;;31.52;27.00;;;;;;;19.35;77.89;96918.12;1775664;79;25894;-85
2021/07/29 04:43:50;;;;;;;29.37;25.05;;;;;;;19.38;77.91;96921.13;1799010;78;25764;-86
2021/07/29 04:46:17;;;;;;;29.25;25.10;;;;;;;19.44;77.88;96925.47;1765559;78;27924;-86
2021/07/29 04:48:44;;;;;;;28.45;25.17;;;;;;;19.47;77.96;96924.09;1784235;78;25811;-85
2021/07/29 04:51:10;;;;;;;32.20;27.17;;;;;;;19.50;77.91;96924.94;1792949;78;25827;-86
2021/07/29 04:53:37;;;;;;;30.12;26.90;;;;;;;19.53;77.98;96921.66;1806321;78;25824;-85
2021/07/29 04:56:04;;;;;;;31.07;27.77;;;;;;;19.50;78.00;96919.47;1783051;78;25801;-85
2021/07/29 04:58:30;;;;;;;32.83;27.85;;;;;;;19.47;78.13;96919.98;1803108;77;27409;-86
2021/07/29 05:01:05;;;;;;;30.30;26.62;;;;;;;19.51;78.22;96923.84;1787476;77;25912;-85
2021/07/29 05:03:32;;;;;;;29.23;26.15;;;;;;;19.52;78.20;96930.96;1774722;79;25811;-85
2021/07/29 05:06:00;;;;;;;28.95;25.82;;;;;;;19.54;78.26;96934.24;1785706;78;26692;-86
2021/07/29 05:08:27;;;;;;;28.62;25.62;;;;;;;19.55;78.14;96939.99;1783597;79;25687;-86
2021/07/29 05:10:54;;;;;;;27.05;24.15;;;;;;;19.53;78.17;96943.55;1789961;78;28062;-84
2021/07/29 05:13:20;;;;;;;27.85;25.15;;;;;;;19.54;77.99;96938.35;1792991;77;26530;-86
2021/07/29 05:15:47;;;;;;;27.05;22.80;;;;;;;19.52;77.99;96946.02;1775647;78;26281;-85
2021/07/29 05:18:13;;;;;;;25.20;22.40;;;;;;;19.54;77.83;96950.67;1763644;79;25835;-87
2021/07/29 05:20:40;;;;;;;25.35;22.75;;;;;;;19.58;77.70;96951.73;1773840;77;25852;-88
2021/07/29 05:23:07;;;;;;;24.80;22.30;;;;;;;19.59;77.56;96956.11;1785938;78;28861;-86
2021/07/29 05:25:36;;;;;;;27.07;23.32;;;;;;;19.58;77.57;96957.20;1789683;78;25775;-87
2021/07/29 05:28:03;;;;;;;25.48;22.52;;;;;;;19.54;77.66;96957.52;1829027;77;25773;-85
2021/07/29 05:30:30;;;;;;;22.85;20.55;;;;;;;19.52;77.50;96965.18;1809626;77;25740;-87
2021/07/29 05:32:58;;;;;;;24.20;21.77;;;;;;;19.53;77.42;96970.11;1794027;79;25700;-87
2021/07/29 05:35:25;;;;;;;25.62;22.95;;;;;;;19.52;77.56;96971.20;1766140;80;27334;-86
2021/07/29 05:37:51;;;;;;;24.27;21.87;;;;;;;19.52;77.70;96976.67;1735674;81;25829;-86
2021/07/29 05:40:18;;;;;;;24.27;21.55;;;;;;;19.56;77.71;96972.30;1771733;79;26231;-86
2021/07/29 05:42:45;;;;;;;28.23;21.52;;;;;;;19.60;77.61;96972.81;1729069;80;26289;-86
2021/07/29 05:45:11;;;;;;;22.58;20.20;;;;;;;19.65;77.65;96972.80;1785414;77;25261;-86
2021/07/29 05:47:38;;;;;;;21.40;19.20;;;;;;;19.70;77.50;96967.84;1801471;77;27617;-86
2021/07/29 05:50:05;;;;;;;20.82;18.60;;;;;;;19.69;77.37;96975.23;1794218;78;26335;-86
2021/07/29 05:52:32;;;;;;;20.80;18.50;;;;;;;19.67;77.34;96970.61;1807992;78;25698;-86
2021/07/29 05:54:58;;;;;;;19.23;17.23;;;;;;;19.66;77.34;96973.08;1767514;78;25762;-86
2021/07/29 05:57:25;;;;;;;18.62;16.77;;;;;;;19.65;77.26;96972.80;1800976;77;25675;-86
2021/07/29 05:59:52;;;;;;;18.82;16.93;;;;;;;19.67;77.47;96966.50;1803391;78;27574;-86
2021/07/29 06:02:18;;;;;;;17.10;15.38;;;;;;;19.72;77.69;96960.98;1791652;78;25864;-85
2021/07/29 06:04:45;;;;;;;17.82;14.15;;;;;;;19.81;77.79;96961.77;1782465;79;25676;-86
2021/07/29 06:07:12;;;;;;;14.47;12.78;;;;;;;19.90;77.54;96968.31;1756450;79;25771;-86
2021/07/29 06:09:38;;;;;;;15.38;12.25;;;;;;;19.98;77.08;96964.43;1802635;77;25814;-85
2021/07/29 06:12:06;;;;;;;13.88;12.30;;;;;;;20.02;76.88;96968.25;1790399;77;27408;-85
2021/07/29 06:14:32;;;;;;;13.40;11.08;;;;;;;20.01;76.77;96965.80;1787838;78;25791;-85
2021/07/29 06:16:59;;;;;;;11.93;10.38;;;;;;;20.03;76.65;96967.16;1796935;77;25652;-86
2021/07/29 06:19:29;;;;;;;11.35;10.08;;;;;;;20.06;76.43;96973.97;1777242;79;25823;-85
2021/07/29 06:21:57;;;;;;;12.05;9.88;;;;;;;20.13;76.14;96969.02;1775099;79;25693;-84
2021/07/29 06:24:24;;;;;;;10.63;9.53;;;;;;;20.19;76.05;96971.98;1796763;78;27421;-85
2021/07/29 06:26:51;;;;;;;12.80;11.28;;;;;;;20.20;75.93;96977.73;1810209;78;25827;-84
2021/07/29 06:29:18;;;;;;;11.68;10.32;;;;;;;20.22;75.94;96978.27;1792561;79;25758;-84
2021/07/29 06:31:45;;;;;;;10.25;9.25;;;;;;;20.29;76.36;96978.76;1754105;79;25789;-83
2021/07/29 06:34:11;;;;;;;10.58;8.88;;;;;;;20.33;75.87;96981.21;1804868;77;25660;-83
2021/07/29 06:36:38;;;;;;;13.20;10.43;;;;;;;20.38;75.51;96982.59;1807117;77;27399;-83
2021/07/29 06:39:05;;;;;;;12.65;10.08;;;;;;;20.43;75.16;96985.28;1767113;79;25892;-84
2021/07/29 06:41:31;;;;;;;11.35;10.15;;;;;;;20.49;74.99;96992.94;1770803;79;25787;-83
2021/07/29 06:43:59;;;;;;;11.15;9.88;;;;;;;20.54;74.80;96990.69;1776978;79;25969;-83
2021/07/29 06:46:26;;;;;;;11.38;9.83;;;;;;;20.60;74.70;96995.05;1767549;80;25702;-84
2021/07/29 06:48:53;;;;;;;10.70;9.60;;;;;;;20.63;74.49;96995.86;1748116;81;27573;-82
2021/07/29 06:51:19;;;;;;;10.95;9.80;;;;;;;20.66;74.31;96995.27;1775588;79;25670;-83
2021/07/29 06:53:46;;;;;;;10.98;9.75;;;;;;;20.67;74.19;97004.58;1784090;79;25665;-83
2021/07/29 06:56:13;;;;;;;9.38;8.48;;;;;;;20.66;74.01;96996.64;1749396;81;26708;-83
2021/07/29 06:58:39;;;;;;;9.93;8.93;;;;;;;20.65;73.94;97001.30;1785857;79;25694;-83
2021/07/29 07:01:06;;;;;;;9.63;8.63;;;;;;;20.65;73.62;96997.19;1723120;81;27613;-85
2021/07/29 07:03:34;;;;;;;10.40;9.35;;;;;;;20.63;73.90;96996.68;1775353;79;25814;-84
2021/07/29 07:06:06;;;;;;;15.03;10.35;;;;;;;20.62;73.98;96998.33;1805646;78;26513;-85
2021/07/29 07:08:34;;;;;;;11.12;9.85;;;;;;;20.65;74.13;97001.88;1800117;78;25766;-83
2021/07/29 07:11:01;;;;;;;11.00;9.90;;;;;;;20.64;74.21;97001.06;1772438;79;25637;-84
2021/07/29 07:13:28;;;;;;;11.38;10.28;;;;;;;20.66;73.87;97000.75;1806696;78;27617;-83
2021/07/29 07:15:55;;;;;;;12.88;10.30;;;;;;;20.66;74.08;96998.01;1806879;78;25767;-83
2021/07/29 07:18:21;;;;;;;11.75;9.45;;;;;;;20.71;74.28;97006.21;1764757;78;25659;-84
2021/07/29 07:20:48;;;;;;;11.78;9.40;;;;;;;20.81;74.45;97006.13;1766233;79;25934;-84
2021/07/29 07:23:15;;;;;;;10.72;9.35;;;;;;;20.90;73.85;96999.47;1789365;79;25596;-83
2021/07/29 07:25:41;;;;;;;11.85;9.65;;;;;;;21.02;74.02;96995.24;1805125;78;26983;-85
2021/07/29 07:28:08;;;;;;;8.83;7.60;;;;;;;21.13;73.35;96998.16;1748951;80;25810;-83
2021/07/29 07:30:35;;;;;;;10.38;8.23;;;;;;;21.18;72.63;96999.53;1740801;81;25908;-83
2021/07/29 07:33:01;;;;;;;9.93;8.85;;;;;;;21.23;72.42;96999.22;1773212;80;25702;-83
2021/07/29 07:35:29;;;;;;;10.48;8.90;;;;;;;21.28;72.18;97000.53;1772732;79;25629;-83
2021/07/29 07:37:56;;;;;;;10.03;8.98;;;;;;;21.35;72.09;97003.77;1770938;79;27423;-83
2021/07/29 07:40:23;;;;;;;9.90;8.75;;;;;;;21.38;71.87;97000.42;1765870;79;25673;-83
2021/07/29 07:42:50;;;;;;;10.55;9.13;;;;;;;21.38;71.59;97001.80;1768185;79;26421;-83
2021/07/29 07:45:17;;;;;;;11.40;8.83;;;;;;;21.36;71.47;97002.11;1815679;77;26380;-83
2021/07/29 07:47:43;;;;;;;10.75;8.28;;;;;;;21.36;71.68;97001.30;1786762;78;26414;-83
2021/07/29 07:50:10;;;;;;;10.40;8.75;;;;;;;21.33;71.47;96997.20;1779424;79;27578;-83
2021/07/29 07:52:37;;;;;;;9.90;8.68;;;;;;;21.36;71.64;97001.30;1782633;78;25757;-83
2021/07/29 07:55:05;;;;;;;10.23;8.28;;;;;;;21.38;71.49;97001.80;1799283;78;26285;-83
2021/07/29 07:57:31;;;;;;;10.25;8.63;;;;;;;21.39;71.12;97004.80;1769896;78;26774;-84
2021/07/29 07:59:58;;;;;;;8.93;8.03;;;;;;;21.38;71.23;96999.05;1739435;81;25779;-84
2021/07/29 08:02:26;;;;;;;11.28;8.58;;;;;;;21.35;71.16;97005.14;1773071;79;28242;-84
2021/07/29 08:04:53;;;;;;;9.85;8.50;;;;;;;21.31;71.05;97004.08;1762839;80;25845;-83
2021/07/29 08:07:20;;;;;;;9.93;8.68;;;;;;;21.26;70.95;97000.00;1762602;79;25716;-83
2021/07/29 08:09:47;;;;;;;11.80;8.60;;;;;;;21.15;71.12;96994.58;1769063;79;26448;-83
2021/07/29 08:12:13;;;;;;;14.87;8.58;;;;;;;21.07;71.36;96991.09;1773495;79;25295;-83
2021/07/29 08:14:40;;;;;;;9.20;7.75;;;;;;;21.07;71.58;96995.21;1773663;79;28138;-83
2021/07/29 08:17:06;;;;;;;10.68;7.53;;;;;;;21.05;71.69;96991.93;1785070;79;25735;-84
2021/07/29 08:19:33;;;;;;;8.58;7.40;;;;;;;21.08;71.17;96991.91;1763084;79;25849;-84
2021/07/29 08:22:00;;;;;;;9.10;7.40;;;;;;;21.11;71.49;96996.28;1767806;79;26347;-84
2021/07/29 08:24:27;;;;;;;8.05;7.25;;;;;;;21.17;71.33;96992.92;1794343;79;25662;-83
2021/07/29 08:26:53;;;;;;;8.73;7.72;;;;;;;21.20;71.64;96995.95;1769923;79;27296;-84
2021/07/29 08:29:20;;;;;;;9.13;6.75;;;;;;;21.24;71.60;96995.38;1763196;79;26287;-84
2021/07/29 08:31:46;;;;;;;7.78;6.95;;;;;;;21.34;71.18;96995.27;1766597;79;25693;-84
2021/07/29 08:34:13;;;;;;;7.95;6.35;;;;;;;21.72;70.34;96991.56;1748145;80;25788;-84
2021/07/29 08:36:42;;;;;;;9.18;6.65;;;;;;;21.72;70.34;96991.56;1700916;82;25749;-85
2021/07/29 08:39:09;;;;;;;8.50;6.58;;;;;;;21.96;70.09;96987.97;1750400;79;27388;-84
2021/07/29 08:41:36;;;;;;;7.35;6.20;;;;;;;22.16;69.67;96990.48;1765249;78;25828;-84
2021/07/29 08:44:04;;;;;;;7.47;6.12;;;;;;;22.58;68.61;96982.15;1784531;77;25713;-86
2021/07/29 08:46:34;;;;;;;7.00;6.22;;;;;;;22.58;68.61;96982.15;1775378;78;25807;-84
2021/07/29 08:49:02;;;;;;;7.50;5.50;;;;;;;22.73;68.21;96984.41;1789424;78;26476;-84
2021/07/29 08:51:29;;;;;;;7.03;5.87;;;;;;;22.63;68.04;96961.45;1813492;78;28370;-84
2021/07/29 08:54:04;;;;;;;6.45;5.85;;;;;;;22.84;67.84;96983.16;1780169;78;26104;-86
2021/07/29 08:56:28;;;;;;;5.97;5.35;;;;;;;22.88;67.49;96986.95;1774805;78;25728;-85
2021/07/29 08:58:55;;;;;;;7.35;6.50;;;;;;;22.84;67.17;96987.28;1805907;78;25948;-85
2021/07/29 09:01:44;;;;;;;5.90;5.40;;;;;;;22.87;67.23;96988.07;1782901;78;25760;-86
2021/07/29 09:04:13;;;;;;;8.15;6.03;;;;;;;22.94;67.11;96989.90;1777117;78;28290;-88
2021/07/29 09:06:57;;;;;;;7.83;6.08;;;;;;;23.03;66.99;96988.64;1778943;78;25693;-85
2021/07/29 09:09:48;;;;;;;8.53;6.10;;;;;;;23.16;67.00;96988.69;1786813;78;25729;-88
2021/07/29 09:12:26;;;;;;;6.65;5.90;;;;;;;23.31;66.98;96988.95;1795568;78;25741;-85
2021/07/29 09:14:54;;;;;;;11.20;6.22;;;;;;;23.47;66.88;96990.31;1793672;78;25804;-85
2021/07/29 09:17:23;;;;;;;7.53;6.15;;;;;;;23.61;67.05;96990.36;1798844;78;27432;-85
2021/07/29 09:19:56;;;;;;;8.55;6.15;;;;;;;23.72;66.69;96993.17;1822202;78;25894;-85
2021/07/29 09:22:26;;;;;;;6.78;6.17;;;;;;;23.82;65.94;96991.59;1797808;78;25863;-85
2021/07/29 09:25:03;;;;;;;7.53;5.40;;;;;;;23.90;65.60;96995.59;1800158;78;26611;-86
2021/07/29 09:27:43;;;;;;;7.55;6.12;;;;;;;24.27;65.41;96987.08;1779417;77;25286;-86
2021/07/29 09:30:29;;;;;;;10.13;6.40;;;;;;;24.82;65.29;96988.31;1787127;78;28069;-87
2021/07/29 09:33:02;;;;;;;6.70;5.28;;;;;;;25.40;64.09;96984.09;1776958;79;25740;-89
2021/07/29 09:35:50;;;;;;;6.40;5.72;;;;;;;25.73;63.62;96994.84;1789497;79;25719;-88
2021/07/29 09:38:27;;;;;;;8.15;5.08;;;;;;;26.15;62.82;96989.22;1792982;78;25728;-87
2021/07/29 09:41:02;;;;;;;6.12;5.53;;;;;;;26.50;62.14;96988.17;1752952;79;25271;-89
2021/07/29 09:43:32;;;;;;;6.87;5.97;;;;;;;26.89;62.37;96983.63;1814824;77;28213;-91
2021/07/29 09:46:02;;;;;;;5.97;5.42;;;;;;;27.34;61.15;96984.08;1776096;77;26042;-91
2021/07/29 09:48:30;;;;;;;5.95;5.45;;;;;;;27.63;60.17;96982.56;1745702;79;26421;-92
2021/07/29 09:50:59;;;;;;;6.08;5.10;;;;;;;27.66;59.21;96987.42;1788340;79;25763;-87
2021/07/29 09:53:33;;;;;;;6.97;5.35;;;;;;;27.21;58.99;96989.23;1764264;79;25638;-85
2021/07/29 09:56:07;;;;;;;6.55;5.30;;;;;;;27.06;58.90;96985.58;1768629;79;25799;-87
2021/07/29 09:58:35;;;;;;;6.70;5.15;;;;;;;26.77;58.75;96984.85;1792447;78;26060;-89
2021/07/29 10:01:03;;;;;;;7.33;5.80;;;;;;;26.59;58.34;96986.79;1781674;78;25772;-87
2021/07/29 10:03:31;;;;;;;7.25;5.28;;;;;;;26.58;58.35;96986.54;1780221;79;25782;-88
2021/07/29 10:06:02;;;;;;;6.17;5.58;;;;;;;26.52;57.67;96982.31;1784925;78;25763;-87
2021/07/29 10:08:38;;;;;;;7.30;5.60;;;;;;;26.26;57.72;96975.33;1799513;77;27392;-87
2021/07/29 10:11:10;;;;;;;7.80;5.25;;;;;;;26.03;58.19;96977.39;1789450;78;25775;-89
2021/07/29 10:13:39;;;;;;;5.28;4.78;;;;;;;26.22;58.90;96970.75;1799274;78;25686;-89
2021/07/29 10:16:13;;;;;;;7.67;4.90;;;;;;;26.46;58.06;96967.81;1790690;77;25812;-88
2021/07/29 10:18:57;;;;;;;6.37;5.40;;;;;;;26.37;57.84;96967.56;1795986;79;25703;-88
2021/07/29 10:21:31;;;;;;;8.28;5.53;;;;;;;26.20;57.49;96958.05;1801603;78;26854;-88
2021/07/29 10:24:00;;;;;;;6.42;5.83;;;;;;;26.24;58.08;96954.65;1801750;78;25705;-91
2021/07/29 10:26:30;;;;;;;7.97;5.92;;;;;;;26.46;58.72;96951.20;1769870;79;25725;-88
2021/07/29 10:29:24;;;;;;;6.92;5.35;;;;;;;26.68;57.96;96946.11;1804577;78;26517;-88
2021/07/29 10:31:57;;;;;;;6.00;5.50;;;;;;;26.97;57.91;96940.47;1809279;78;25929;-88
2021/07/29 10:34:28;;;;;;;5.83;5.22;;;;;;;27.26;57.38;96939.20;1778427;77;27558;-90
2021/07/29 10:36:59;;;;;;;5.92;5.22;;;;;;;27.48;56.87;96937.58;1789109;77;25753;-88
2021/07/29 10:39:27;;;;;;;5.87;5.30;;;;;;;27.65;56.44;96934.53;1774417;78;25863;-84
2021/07/29 10:41:57;;;;;;;5.90;5.15;;;;;;;27.76;56.49;96933.83;1796968;77;25772;-88
2021/07/29 10:44:39;;;;;;;6.78;5.85;;;;;;;27.85;55.75;96936.55;1806697;77;25812;-87
2021/07/29 10:47:14;;;;;;;5.60;5.00;;;;;;;28.00;55.33;96933.21;1771282;78;27473;-86
2021/07/29 10:49:53;;;;;;;6.08;5.33;;;;;;;27.99;54.46;96928.00;1784621;79;26140;-89
2021/07/29 10:52:20;;;;;;;8.30;6.30;;;;;;;27.75;53.44;96927.23;1789498;77;25694;-89
2021/07/29 10:54:47;;;;;;;18.85;9.18;;;;;;;27.77;54.74;96926.32;1760102;79;25923;-87
2021/07/29 10:57:14;;;;;;;10.05;5.97;;;;;;;27.95;55.52;96927.84;1710872;82;25770;-88
2021/07/29 10:59:41;;;;;;;7.37;5.65;;;;;;;28.15;54.97;96927.63;1735695;81;28141;-87
2021/07/29 11:02:13;;;;;;;10.80;6.30;;;;;;;28.27;55.13;96924.97;1754045;80;25847;-88
2021/07/29 11:04:58;;;;;;;4.72;4.33;;;;;;;28.40;54.85;96920.30;1773182;79;25763;-88
2021/07/29 11:07:26;;;;;;;5.65;5.10;;;;;;;28.50;54.37;96922.70;1740309;79;25787;-88
2021/07/29 11:10:03;;;;;;;5.28;4.78;;;;;;;28.68;54.04;96915.84;1759548;80;25721;-87
2021/07/29 11:12:31;;;;;;;5.03;4.62;;;;;;;28.82;53.54;96916.40;1757213;80;28427;-89
2021/07/29 11:14:59;;;;;;;6.50;5.10;;;;;;;28.90;52.28;96912.72;1774484;79;25892;-90
2021/07/29 11:17:27;;;;;;;4.80;4.40;;;;;;;28.79;52.59;96904.58;1762970;79;25934;-87
2021/07/29 11:19:54;;;;;;;5.45;4.55;;;;;;;28.85;51.78;96901.84;1738613;80;25850;-87
2021/07/29 11:22:20;;;;;;;5.50;5.00;;;;;;;28.80;51.70;96899.26;1758549;80;25742;-87
2021/07/29 11:24:47;;;;;;;5.03;4.37;;;;;;;28.73;51.44;96901.76;1740196;80;28258;-88
2021/07/29 11:27:14;;;;;;;5.20;4.80;;;;;;;28.66;51.55;96895.34;1711662;82;25842;-88
2021/07/29 11:29:56;;;;;;;5.37;4.87;;;;;;;28.68;51.16;96899.17;1715018;80;25856;-88
2021/07/29 11:32:22;;;;;;;6.15;4.05;;;;;;;28.78;51.14;96897.39;1799235;77;25686;-87